sensor_id;sensor_type;location;lat;lon;timestamp;P1;durP1;ratioP1;P2;durP2;ratioP2
49722;SDS011;43484;43.608;1.458;2022-12-24T00:00:05;29.65;;;16.88;;
49722;SDS011;43484;43.608;1.458;2022-12-24T00:02:33;29.55;;;16.48;;
49722;SDS011;43484;43.608;1.458;2022-12-24T00:04:59;28.63;;;15.60;;
49722;SDS011;43484;43.608;1.458;2022-12-24T00:07:27;26.73;;;15.07;;
49722;SDS011;43484;43.608;1.458;2022-12-24T00:09:54;23.80;;;13.00;;
49722;SDS011;43484;43.608;1.458;2022-12-24T00:12:20;23.42;;;13.55;;
49722;SDS011;43484;43.608;1.458;2022-12-24T00:14:47;23.63;;;13.85;;
49722;SDS011;43484;43.608;1.458;2022-12-24T00:17:13;23.02;;;13.02;;
49722;SDS011;43484;43.608;1.458;2022-12-24T00:19:40;26.45;;;12.40;;
49722;SDS011;43484;43.608;1.458;2022-12-24T00:22:08;20.50;;;12.68;;
49722;SDS011;43484;43.608;1.458;2022-12-24T00:24:35;23.45;;;11.40;;
49722;SDS011;43484;43.608;1.458;2022-12-24T00:27:02;17.50;;;11.57;;
49722;SDS011;43484;43.608;1.458;2022-12-24T00:29:28;20.08;;;11.73;;
49722;SDS011;43484;43.608;1.458;2022-12-24T00:31:55;24.77;;;13.68;;
49722;SDS011;43484;43.608;1.458;2022-12-24T00:34:22;21.80;;;12.43;;
49722;SDS011;43484;43.608;1.458;2022-12-24T00:36:50;20.77;;;11.68;;
49722;SDS011;43484;43.608;1.458;2022-12-24T00:39:17;21.80;;;11.60;;
49722;SDS011;43484;43.608;1.458;2022-12-24T00:41:44;22.40;;;12.50;;
49722;SDS011;43484;43.608;1.458;2022-12-24T00:44:10;19.90;;;10.95;;
49722;SDS011;43484;43.608;1.458;2022-12-24T00:46:37;20.23;;;10.98;;
49722;SDS011;43484;43.608;1.458;2022-12-24T00:49:05;17.95;;;11.57;;
49722;SDS011;43484;43.608;1.458;2022-12-24T00:51:33;17.80;;;11.07;;
49722;SDS011;43484;43.608;1.458;2022-12-24T00:54:01;17.08;;;11.13;;
49722;SDS011;43484;43.608;1.458;2022-12-24T00:56:28;21.23;;;10.52;;
49722;SDS011;43484;43.608;1.458;2022-12-24T00:58:55;21.63;;;10.82;;
49722;SDS011;43484;43.608;1.458;2022-12-24T01:01:22;20.83;;;9.85;;
49722;SDS011;43484;43.608;1.458;2022-12-24T01:03:49;15.02;;;10.20;;
49722;SDS011;43484;43.608;1.458;2022-12-24T01:06:17;16.30;;;10.02;;
49722;SDS011;43484;43.608;1.458;2022-12-24T01:08:48;24.17;;;11.07;;
49722;SDS011;43484;43.608;1.458;2022-12-24T01:11:16;17.05;;;9.93;;
49722;SDS011;43484;43.608;1.458;2022-12-24T01:13:43;15.55;;;9.75;;
49722;SDS011;43484;43.608;1.458;2022-12-24T01:16:14;16.17;;;10.07;;
49722;SDS011;43484;43.608;1.458;2022-12-24T01:18:42;20.42;;;10.02;;
49722;SDS011;43484;43.608;1.458;2022-12-24T01:21:09;20.42;;;10.32;;
49722;SDS011;43484;43.608;1.458;2022-12-24T01:23:35;16.25;;;9.90;;
49722;SDS011;43484;43.608;1.458;2022-12-24T01:26:03;16.83;;;9.82;;
49722;SDS011;43484;43.608;1.458;2022-12-24T01:28:30;13.85;;;9.82;;
49722;SDS011;43484;43.608;1.458;2022-12-24T01:30:57;19.52;;;9.98;;
49722;SDS011;43484;43.608;1.458;2022-12-24T01:33:26;17.73;;;10.00;;
49722;SDS011;43484;43.608;1.458;2022-12-24T01:35:54;17.90;;;10.15;;
49722;SDS011;43484;43.608;1.458;2022-12-24T01:38:21;15.77;;;8.93;;
49722;SDS011;43484;43.608;1.458;2022-12-24T01:40:47;18.30;;;9.73;;
49722;SDS011;43484;43.608;1.458;2022-12-24T01:43:32;19.98;;;9.23;;
49722;SDS011;43484;43.608;1.458;2022-12-24T01:48:57;16.05;;;10.02;;
49722;SDS011;43484;43.608;1.458;2022-12-24T01:51:36;16.08;;;10.45;;
49722;SDS011;43484;43.608;1.458;2022-12-24T01:54:09;18.63;;;10.75;;
49722;SDS011;43484;43.608;1.458;2022-12-24T01:56:39;15.73;;;10.00;;
49722;SDS011;43484;43.608;1.458;2022-12-24T01:59:12;17.70;;;9.10;;
49722;SDS011;43484;43.608;1.458;2022-12-24T02:01:41;11.98;;;8.30;;
49722;SDS011;43484;43.608;1.458;2022-12-24T02:04:12;19.35;;;7.85;;
49722;SDS011;43484;43.608;1.458;2022-12-24T02:06:51;16.95;;;8.07;;
49722;SDS011;43484;43.608;1.458;2022-12-24T02:09:18;11.80;;;7.72;;
49722;SDS011;43484;43.608;1.458;2022-12-24T02:11:45;17.52;;;7.80;;
49722;SDS011;43484;43.608;1.458;2022-12-24T02:14:12;15.95;;;7.63;;
49722;SDS011;43484;43.608;1.458;2022-12-24T02:16:56;12.30;;;7.40;;
49722;SDS011;43484;43.608;1.458;2022-12-24T02:22:31;15.23;;;7.65;;
49722;SDS011;43484;43.608;1.458;2022-12-24T02:28:28;13.53;;;6.90;;
49722;SDS011;43484;43.608;1.458;2022-12-24T02:31:23;15.73;;;7.88;;
49722;SDS011;43484;43.608;1.458;2022-12-24T02:37:04;13.57;;;7.50;;
49722;SDS011;43484;43.608;1.458;2022-12-24T02:42:19;15.05;;;8.10;;
49722;SDS011;43484;43.608;1.458;2022-12-24T02:44:51;16.08;;;7.60;;
49722;SDS011;43484;43.608;1.458;2022-12-24T02:47:22;14.13;;;8.43;;
49722;SDS011;43484;43.608;1.458;2022-12-24T02:49:51;15.50;;;7.32;;
49722;SDS011;43484;43.608;1.458;2022-12-24T02:52:31;13.90;;;7.68;;
49722;SDS011;43484;43.608;1.458;2022-12-24T02:55:01;17.67;;;7.88;;
49722;SDS011;43484;43.608;1.458;2022-12-24T03:00:07;18.50;;;7.28;;
49722;SDS011;43484;43.608;1.458;2022-12-24T03:02:53;16.48;;;7.03;;
49722;SDS011;43484;43.608;1.458;2022-12-24T03:05:43;10.00;;;6.55;;
49722;SDS011;43484;43.608;1.458;2022-12-24T03:08:15;14.25;;;6.50;;
49722;SDS011;43484;43.608;1.458;2022-12-24T03:10:59;10.88;;;6.90;;
49722;SDS011;43484;43.608;1.458;2022-12-24T03:13:33;13.50;;;7.13;;
49722;SDS011;43484;43.608;1.458;2022-12-24T03:16:02;17.77;;;8.00;;
49722;SDS011;43484;43.608;1.458;2022-12-24T03:18:31;12.82;;;7.70;;
49722;SDS011;43484;43.608;1.458;2022-12-24T03:21:12;11.50;;;7.45;;
49722;SDS011;43484;43.608;1.458;2022-12-24T03:23:46;10.55;;;7.07;;
49722;SDS011;43484;43.608;1.458;2022-12-24T03:26:15;12.85;;;7.53;;
49722;SDS011;43484;43.608;1.458;2022-12-24T03:28:43;12.23;;;6.95;;
49722;SDS011;43484;43.608;1.458;2022-12-24T03:31:11;14.75;;;7.65;;
49722;SDS011;43484;43.608;1.458;2022-12-24T03:33:38;12.35;;;6.65;;
49722;SDS011;43484;43.608;1.458;2022-12-24T03:36:06;12.18;;;7.55;;
49722;SDS011;43484;43.608;1.458;2022-12-24T03:38:33;10.43;;;6.95;;
49722;SDS011;43484;43.608;1.458;2022-12-24T03:41:01;10.57;;;6.97;;
49722;SDS011;43484;43.608;1.458;2022-12-24T03:43:28;11.70;;;6.68;;
49722;SDS011;43484;43.608;1.458;2022-12-24T03:45:55;12.00;;;7.75;;
49722;SDS011;43484;43.608;1.458;2022-12-24T03:48:21;10.13;;;6.88;;
49722;SDS011;43484;43.608;1.458;2022-12-24T03:50:57;15.38;;;6.80;;
49722;SDS011;43484;43.608;1.458;2022-12-24T03:53:24;11.02;;;6.63;;
49722;SDS011;43484;43.608;1.458;2022-12-24T03:55:50;12.57;;;7.30;;
49722;SDS011;43484;43.608;1.458;2022-12-24T03:58:17;13.88;;;7.40;;
49722;SDS011;43484;43.608;1.458;2022-12-24T04:00:43;14.00;;;7.57;;
49722;SDS011;43484;43.608;1.458;2022-12-24T04:03:10;15.30;;;7.13;;
49722;SDS011;43484;43.608;1.458;2022-12-24T04:05:37;11.23;;;7.68;;
49722;SDS011;43484;43.608;1.458;2022-12-24T04:08:03;15.57;;;6.97;;
49722;SDS011;43484;43.608;1.458;2022-12-24T04:10:30;13.45;;;7.75;;
49722;SDS011;43484;43.608;1.458;2022-12-24T04:12:57;12.75;;;7.40;;
49722;SDS011;43484;43.608;1.458;2022-12-24T04:15:23;17.70;;;7.32;;
49722;SDS011;43484;43.608;1.458;2022-12-24T04:17:50;13.85;;;7.82;;
49722;SDS011;43484;43.608;1.458;2022-12-24T04:20:16;13.15;;;7.53;;
49722;SDS011;43484;43.608;1.458;2022-12-24T04:22:45;13.35;;;6.95;;
49722;SDS011;43484;43.608;1.458;2022-12-24T04:25:11;14.98;;;7.53;;
49722;SDS011;43484;43.608;1.458;2022-12-24T04:27:38;12.48;;;6.63;;
49722;SDS011;43484;43.608;1.458;2022-12-24T04:30:05;12.35;;;6.60;;
49722;SDS011;43484;43.608;1.458;2022-12-24T04:32:32;12.52;;;7.03;;
49722;SDS011;43484;43.608;1.458;2022-12-24T04:34:58;18.45;;;7.30;;
49722;SDS011;43484;43.608;1.458;2022-12-24T04:37:25;10.95;;;6.78;;
49722;SDS011;43484;43.608;1.458;2022-12-24T04:39:51;13.52;;;7.32;;
49722;SDS011;43484;43.608;1.458;2022-12-24T04:42:18;13.73;;;6.70;;
49722;SDS011;43484;43.608;1.458;2022-12-24T04:44:45;11.25;;;6.35;;
49722;SDS011;43484;43.608;1.458;2022-12-24T04:47:11;13.63;;;6.53;;
49722;SDS011;43484;43.608;1.458;2022-12-24T04:49:38;13.38;;;7.13;;
49722;SDS011;43484;43.608;1.458;2022-12-24T04:52:04;18.50;;;7.22;;
49722;SDS011;43484;43.608;1.458;2022-12-24T04:54:31;13.02;;;6.95;;
49722;SDS011;43484;43.608;1.458;2022-12-24T04:56:58;12.80;;;7.63;;
49722;SDS011;43484;43.608;1.458;2022-12-24T04:59:24;9.80;;;7.07;;
49722;SDS011;43484;43.608;1.458;2022-12-24T05:01:51;9.82;;;6.63;;
49722;SDS011;43484;43.608;1.458;2022-12-24T05:04:18;9.95;;;6.95;;
49722;SDS011;43484;43.608;1.458;2022-12-24T05:06:44;11.70;;;7.82;;
49722;SDS011;43484;43.608;1.458;2022-12-24T05:09:11;13.32;;;7.60;;
49722;SDS011;43484;43.608;1.458;2022-12-24T05:11:37;14.43;;;7.63;;
49722;SDS011;43484;43.608;1.458;2022-12-24T05:14:04;16.00;;;8.95;;
49722;SDS011;43484;43.608;1.458;2022-12-24T05:16:31;17.73;;;9.77;;
49722;SDS011;43484;43.608;1.458;2022-12-24T05:18:57;14.95;;;8.63;;
49722;SDS011;43484;43.608;1.458;2022-12-24T05:21:24;17.98;;;9.00;;
49722;SDS011;43484;43.608;1.458;2022-12-24T05:23:51;15.73;;;9.40;;
49722;SDS011;43484;43.608;1.458;2022-12-24T05:29:09;14.20;;;8.00;;
49722;SDS011;43484;43.608;1.458;2022-12-24T05:31:39;15.68;;;8.18;;
49722;SDS011;43484;43.608;1.458;2022-12-24T05:34:08;16.95;;;8.95;;
49722;SDS011;43484;43.608;1.458;2022-12-24T05:36:35;16.00;;;8.52;;
49722;SDS011;43484;43.608;1.458;2022-12-24T05:39:02;13.98;;;8.57;;
49722;SDS011;43484;43.608;1.458;2022-12-24T05:41:35;10.88;;;7.72;;
49722;SDS011;43484;43.608;1.458;2022-12-24T05:44:01;11.82;;;7.60;;
49722;SDS011;43484;43.608;1.458;2022-12-24T05:46:28;11.18;;;7.88;;
49722;SDS011;43484;43.608;1.458;2022-12-24T05:48:54;12.38;;;8.13;;
49722;SDS011;43484;43.608;1.458;2022-12-24T05:51:21;13.55;;;7.40;;
49722;SDS011;43484;43.608;1.458;2022-12-24T05:53:49;12.43;;;7.07;;
49722;SDS011;43484;43.608;1.458;2022-12-24T05:56:18;10.18;;;6.70;;
49722;SDS011;43484;43.608;1.458;2022-12-24T05:58:46;12.35;;;6.45;;
49722;SDS011;43484;43.608;1.458;2022-12-24T06:01:13;11.30;;;6.63;;
49722;SDS011;43484;43.608;1.458;2022-12-24T06:03:40;14.57;;;7.07;;
49722;SDS011;43484;43.608;1.458;2022-12-24T06:06:08;15.00;;;6.43;;
49722;SDS011;43484;43.608;1.458;2022-12-24T06:08:37;11.27;;;7.57;;
49722;SDS011;43484;43.608;1.458;2022-12-24T06:11:06;16.80;;;8.55;;
49722;SDS011;43484;43.608;1.458;2022-12-24T06:13:34;16.92;;;8.63;;
49722;SDS011;43484;43.608;1.458;2022-12-24T06:16:02;13.23;;;8.07;;
49722;SDS011;43484;43.608;1.458;2022-12-24T06:18:30;13.13;;;7.72;;
49722;SDS011;43484;43.608;1.458;2022-12-24T06:20:58;13.20;;;7.43;;
49722;SDS011;43484;43.608;1.458;2022-12-24T06:23:27;14.60;;;8.70;;
49722;SDS011;43484;43.608;1.458;2022-12-24T06:25:55;12.73;;;8.05;;
49722;SDS011;43484;43.608;1.458;2022-12-24T06:28:23;17.65;;;9.32;;
49722;SDS011;43484;43.608;1.458;2022-12-24T06:30:49;15.07;;;9.13;;
49722;SDS011;43484;43.608;1.458;2022-12-24T06:33:22;32.92;;;14.27;;
49722;SDS011;43484;43.608;1.458;2022-12-24T06:35:49;23.85;;;12.23;;
49722;SDS011;43484;43.608;1.458;2022-12-24T06:38:15;22.52;;;10.93;;
49722;SDS011;43484;43.608;1.458;2022-12-24T06:40:43;25.00;;;10.95;;
49722;SDS011;43484;43.608;1.458;2022-12-24T06:43:11;24.20;;;12.95;;
49722;SDS011;43484;43.608;1.458;2022-12-24T06:45:39;26.77;;;14.02;;
49722;SDS011;43484;43.608;1.458;2022-12-24T06:48:09;26.63;;;14.07;;
49722;SDS011;43484;43.608;1.458;2022-12-24T06:50:36;19.65;;;9.65;;
49722;SDS011;43484;43.608;1.458;2022-12-24T06:53:02;16.27;;;9.73;;
49722;SDS011;43484;43.608;1.458;2022-12-24T06:55:29;16.58;;;8.95;;
49722;SDS011;43484;43.608;1.458;2022-12-24T06:57:55;11.93;;;7.72;;
49722;SDS011;43484;43.608;1.458;2022-12-24T07:00:22;13.82;;;8.40;;
49722;SDS011;43484;43.608;1.458;2022-12-24T07:02:49;15.68;;;8.85;;
49722;SDS011;43484;43.608;1.458;2022-12-24T07:05:16;13.65;;;8.60;;
49722;SDS011;43484;43.608;1.458;2022-12-24T07:07:43;12.90;;;8.43;;
49722;SDS011;43484;43.608;1.458;2022-12-24T07:10:11;13.98;;;8.20;;
49722;SDS011;43484;43.608;1.458;2022-12-24T07:12:40;13.75;;;8.05;;
49722;SDS011;43484;43.608;1.458;2022-12-24T07:15:08;13.88;;;8.02;;
49722;SDS011;43484;43.608;1.458;2022-12-24T07:17:36;14.35;;;8.00;;
49722;SDS011;43484;43.608;1.458;2022-12-24T07:20:04;13.23;;;8.57;;
49722;SDS011;43484;43.608;1.458;2022-12-24T07:22:32;14.32;;;8.82;;
49722;SDS011;43484;43.608;1.458;2022-12-24T07:24:59;12.88;;;8.23;;
49722;SDS011;43484;43.608;1.458;2022-12-24T07:27:25;20.17;;;11.77;;
49722;SDS011;43484;43.608;1.458;2022-12-24T07:29:52;17.15;;;12.48;;
49722;SDS011;43484;43.608;1.458;2022-12-24T07:32:18;18.08;;;11.82;;
49722;SDS011;43484;43.608;1.458;2022-12-24T07:34:45;17.75;;;9.63;;
49722;SDS011;43484;43.608;1.458;2022-12-24T07:37:12;23.20;;;9.20;;
49722;SDS011;43484;43.608;1.458;2022-12-24T07:39:39;23.58;;;9.85;;
49722;SDS011;43484;43.608;1.458;2022-12-24T07:42:05;16.15;;;8.15;;
49722;SDS011;43484;43.608;1.458;2022-12-24T07:44:33;20.55;;;9.48;;
49722;SDS011;43484;43.608;1.458;2022-12-24T07:47:00;15.57;;;8.30;;
49722;SDS011;43484;43.608;1.458;2022-12-24T07:49:27;21.42;;;9.32;;
49722;SDS011;43484;43.608;1.458;2022-12-24T07:51:54;24.15;;;11.93;;
49722;SDS011;43484;43.608;1.458;2022-12-24T07:54:20;23.05;;;8.93;;
49722;SDS011;43484;43.608;1.458;2022-12-24T07:56:47;24.33;;;10.57;;
49722;SDS011;43484;43.608;1.458;2022-12-24T07:59:14;42.35;;;19.30;;
49722;SDS011;43484;43.608;1.458;2022-12-24T08:01:41;25.13;;;11.93;;
49722;SDS011;43484;43.608;1.458;2022-12-24T08:04:08;17.38;;;8.27;;
49722;SDS011;43484;43.608;1.458;2022-12-24T08:06:35;18.45;;;7.25;;
49722;SDS011;43484;43.608;1.458;2022-12-24T08:09:01;19.10;;;9.13;;
49722;SDS011;43484;43.608;1.458;2022-12-24T08:11:28;17.98;;;8.85;;
49722;SDS011;43484;43.608;1.458;2022-12-24T08:13:55;14.80;;;7.45;;
49722;SDS011;43484;43.608;1.458;2022-12-24T08:16:22;9.57;;;6.70;;
49722;SDS011;43484;43.608;1.458;2022-12-24T08:18:48;12.43;;;6.47;;
49722;SDS011;43484;43.608;1.458;2022-12-24T08:21:16;12.80;;;6.22;;
49722;SDS011;43484;43.608;1.458;2022-12-24T08:23:43;15.00;;;7.70;;
49722;SDS011;43484;43.608;1.458;2022-12-24T08:26:11;19.55;;;7.25;;
49722;SDS011;43484;43.608;1.458;2022-12-24T08:28:38;16.25;;;7.55;;
49722;SDS011;43484;43.608;1.458;2022-12-24T08:31:04;13.77;;;7.13;;
49722;SDS011;43484;43.608;1.458;2022-12-24T08:33:31;15.25;;;7.65;;
49722;SDS011;43484;43.608;1.458;2022-12-24T08:35:59;13.70;;;6.47;;
49722;SDS011;43484;43.608;1.458;2022-12-24T08:38:27;10.48;;;6.43;;
49722;SDS011;43484;43.608;1.458;2022-12-24T08:40:54;13.85;;;7.13;;
49722;SDS011;43484;43.608;1.458;2022-12-24T08:43:21;10.80;;;6.68;;
49722;SDS011;43484;43.608;1.458;2022-12-24T08:45:50;14.70;;;7.28;;
49722;SDS011;43484;43.608;1.458;2022-12-24T08:48:17;21.58;;;8.20;;
49722;SDS011;43484;43.608;1.458;2022-12-24T08:50:45;11.07;;;6.25;;
49722;SDS011;43484;43.608;1.458;2022-12-24T08:53:12;14.55;;;8.07;;
49722;SDS011;43484;43.608;1.458;2022-12-24T08:55:39;13.02;;;7.80;;
49722;SDS011;43484;43.608;1.458;2022-12-24T08:58:05;12.57;;;7.78;;
49722;SDS011;43484;43.608;1.458;2022-12-24T09:00:32;18.00;;;8.15;;
49722;SDS011;43484;43.608;1.458;2022-12-24T09:02:58;15.52;;;9.07;;
49722;SDS011;43484;43.608;1.458;2022-12-24T09:05:25;17.58;;;8.98;;
49722;SDS011;43484;43.608;1.458;2022-12-24T09:07:52;12.55;;;6.97;;
49722;SDS011;43484;43.608;1.458;2022-12-24T09:10:19;16.55;;;7.05;;
49722;SDS011;43484;43.608;1.458;2022-12-24T09:12:45;12.43;;;8.07;;
49722;SDS011;43484;43.608;1.458;2022-12-24T09:15:13;15.18;;;7.32;;
49722;SDS011;43484;43.608;1.458;2022-12-24T09:17:40;11.35;;;5.53;;
49722;SDS011;43484;43.608;1.458;2022-12-24T09:20:07;10.90;;;5.85;;
49722;SDS011;43484;43.608;1.458;2022-12-24T09:22:35;11.70;;;5.57;;
49722;SDS011;43484;43.608;1.458;2022-12-24T09:25:03;10.35;;;5.75;;
49722;SDS011;43484;43.608;1.458;2022-12-24T09:27:31;10.32;;;6.25;;
49722;SDS011;43484;43.608;1.458;2022-12-24T09:29:58;10.80;;;5.97;;
49722;SDS011;43484;43.608;1.458;2022-12-24T09:32:25;10.48;;;6.47;;
49722;SDS011;43484;43.608;1.458;2022-12-24T09:34:51;9.68;;;5.80;;
49722;SDS011;43484;43.608;1.458;2022-12-24T09:37:18;10.32;;;6.15;;
49722;SDS011;43484;43.608;1.458;2022-12-24T09:39:44;10.90;;;6.85;;
49722;SDS011;43484;43.608;1.458;2022-12-24T09:42:33;8.48;;;6.03;;
49722;SDS011;43484;43.608;1.458;2022-12-24T09:47:50;13.43;;;7.13;;
49722;SDS011;43484;43.608;1.458;2022-12-24T09:55:39;10.75;;;6.07;;
49722;SDS011;43484;43.608;1.458;2022-12-24T10:00:45;9.20;;;5.07;;
49722;SDS011;43484;43.608;1.458;2022-12-24T10:03:15;10.60;;;5.85;;
49722;SDS011;43484;43.608;1.458;2022-12-24T10:11:21;9.00;;;5.15;;
49722;SDS011;43484;43.608;1.458;2022-12-24T10:14:10;14.70;;;7.65;;
49722;SDS011;43484;43.608;1.458;2022-12-24T10:25:21;13.55;;;4.22;;
49722;SDS011;43484;43.608;1.458;2022-12-24T10:27:53;6.45;;;4.13;;
49722;SDS011;43484;43.608;1.458;2022-12-24T10:30:23;10.75;;;4.53;;
49722;SDS011;43484;43.608;1.458;2022-12-24T10:32:51;7.07;;;3.90;;
49722;SDS011;43484;43.608;1.458;2022-12-24T10:37:48;7.53;;;4.55;;
49722;SDS011;43484;43.608;1.458;2022-12-24T10:40:23;6.97;;;3.90;;
49722;SDS011;43484;43.608;1.458;2022-12-24T10:42:55;8.52;;;4.30;;
49722;SDS011;43484;43.608;1.458;2022-12-24T10:45:23;8.35;;;4.78;;
49722;SDS011;43484;43.608;1.458;2022-12-24T10:47:53;5.95;;;4.55;;
49722;SDS011;43484;43.608;1.458;2022-12-24T10:53:01;6.35;;;3.90;;
49722;SDS011;43484;43.608;1.458;2022-12-24T10:55:38;8.88;;;4.53;;
49722;SDS011;43484;43.608;1.458;2022-12-24T10:58:06;6.90;;;3.97;;
49722;SDS011;43484;43.608;1.458;2022-12-24T11:00:39;8.63;;;3.42;;
49722;SDS011;43484;43.608;1.458;2022-12-24T11:03:16;7.25;;;4.43;;
49722;SDS011;43484;43.608;1.458;2022-12-24T11:05:58;6.57;;;3.92;;
49722;SDS011;43484;43.608;1.458;2022-12-24T11:08:26;5.47;;;3.78;;
49722;SDS011;43484;43.608;1.458;2022-12-24T11:10:57;5.93;;;3.60;;
49722;SDS011;43484;43.608;1.458;2022-12-24T11:13:30;6.50;;;4.00;;
49722;SDS011;43484;43.608;1.458;2022-12-24T11:18:47;13.30;;;5.80;;
49722;SDS011;43484;43.608;1.458;2022-12-24T11:21:21;8.45;;;3.83;;
49722;SDS011;43484;43.608;1.458;2022-12-24T11:23:54;6.80;;;3.92;;
49722;SDS011;43484;43.608;1.458;2022-12-24T11:26:24;17.17;;;4.13;;
49722;SDS011;43484;43.608;1.458;2022-12-24T11:29:02;7.65;;;3.80;;
49722;SDS011;43484;43.608;1.458;2022-12-24T11:31:41;9.82;;;3.90;;
49722;SDS011;43484;43.608;1.458;2022-12-24T11:36:54;6.43;;;3.40;;
49722;SDS011;43484;43.608;1.458;2022-12-24T11:39:40;6.78;;;2.97;;
49722;SDS011;43484;43.608;1.458;2022-12-24T11:42:37;10.48;;;3.75;;
49722;SDS011;43484;43.608;1.458;2022-12-24T11:45:06;11.43;;;4.50;;
49722;SDS011;43484;43.608;1.458;2022-12-24T11:47:44;8.90;;;4.22;;
49722;SDS011;43484;43.608;1.458;2022-12-24T11:50:44;8.73;;;4.65;;
49722;SDS011;43484;43.608;1.458;2022-12-24T11:53:05;8.38;;;3.78;;
49722;SDS011;43484;43.608;1.458;2022-12-24T11:55:52;5.65;;;3.30;;
49722;SDS011;43484;43.608;1.458;2022-12-24T12:01:20;9.13;;;3.35;;
49722;SDS011;43484;43.608;1.458;2022-12-24T12:04:03;5.68;;;3.45;;
49722;SDS011;43484;43.608;1.458;2022-12-24T12:06:37;10.35;;;3.65;;
49722;SDS011;43484;43.608;1.458;2022-12-24T12:09:30;7.95;;;3.15;;
49722;SDS011;43484;43.608;1.458;2022-12-24T12:11:59;10.52;;;3.42;;
49722;SDS011;43484;43.608;1.458;2022-12-24T12:14:37;6.72;;;3.05;;
49722;SDS011;43484;43.608;1.458;2022-12-24T12:17:38;10.27;;;3.72;;
49722;SDS011;43484;43.608;1.458;2022-12-24T12:20:18;8.27;;;4.20;;
49722;SDS011;43484;43.608;1.458;2022-12-24T12:28:01;9.98;;;3.08;;
49722;SDS011;43484;43.608;1.458;2022-12-24T12:30:31;7.45;;;3.40;;
49722;SDS011;43484;43.608;1.458;2022-12-24T12:33:03;8.70;;;3.72;;
49722;SDS011;43484;43.608;1.458;2022-12-24T12:35:41;10.25;;;4.30;;
49722;SDS011;43484;43.608;1.458;2022-12-24T12:38:13;9.77;;;3.22;;
49722;SDS011;43484;43.608;1.458;2022-12-24T12:43:37;10.07;;;3.33;;
49722;SDS011;43484;43.608;1.458;2022-12-24T12:49:20;4.47;;;1.97;;
49722;SDS011;43484;43.608;1.458;2022-12-24T12:52:35;8.52;;;1.98;;
49722;SDS011;43484;43.608;1.458;2022-12-24T12:55:20;2.95;;;1.30;;
49722;SDS011;43484;43.608;1.458;2022-12-24T12:57:50;4.03;;;1.30;;
49722;SDS011;43484;43.608;1.458;2022-12-24T13:00:20;3.28;;;1.30;;
49722;SDS011;43484;43.608;1.458;2022-12-24T13:08:16;5.13;;;2.35;;
49722;SDS011;43484;43.608;1.458;2022-12-24T13:21:41;4.00;;;1.67;;
49722;SDS011;43484;43.608;1.458;2022-12-24T13:24:20;5.60;;;1.60;;
49722;SDS011;43484;43.608;1.458;2022-12-24T13:29:39;3.25;;;1.20;;
49722;SDS011;43484;43.608;1.458;2022-12-24T13:37:30;5.38;;;1.63;;
49722;SDS011;43484;43.608;1.458;2022-12-24T13:48:07;1.85;;;1.10;;
49722;SDS011;43484;43.608;1.458;2022-12-24T13:50:53;4.53;;;1.27;;
49722;SDS011;43484;43.608;1.458;2022-12-24T13:58:30;3.38;;;1.42;;
49722;SDS011;43484;43.608;1.458;2022-12-24T14:08:56;3.60;;;1.33;;
49722;SDS011;43484;43.608;1.458;2022-12-24T14:14:31;2.92;;;1.40;;
49722;SDS011;43484;43.608;1.458;2022-12-24T14:19:45;3.75;;;1.08;;
49722;SDS011;43484;43.608;1.458;2022-12-24T14:32:43;5.53;;;2.20;;
49722;SDS011;43484;43.608;1.458;2022-12-24T14:35:15;6.18;;;1.90;;
49722;SDS011;43484;43.608;1.458;2022-12-24T14:37:47;6.60;;;1.45;;
49722;SDS011;43484;43.608;1.458;2022-12-24T14:40:20;3.92;;;1.60;;
49722;SDS011;43484;43.608;1.458;2022-12-24T14:42:53;5.28;;;1.95;;
49722;SDS011;43484;43.608;1.458;2022-12-24T14:56:15;5.50;;;1.35;;
49722;SDS011;43484;43.608;1.458;2022-12-24T14:58:43;5.70;;;1.60;;
49722;SDS011;43484;43.608;1.458;2022-12-24T15:06:48;6.78;;;2.30;;
49722;SDS011;43484;43.608;1.458;2022-12-24T15:09:19;3.80;;;1.23;;
49722;SDS011;43484;43.608;1.458;2022-12-24T15:11:49;5.07;;;1.55;;
49722;SDS011;43484;43.608;1.458;2022-12-24T15:14:19;6.38;;;1.27;;
49722;SDS011;43484;43.608;1.458;2022-12-24T15:16:53;2.17;;;1.20;;
49722;SDS011;43484;43.608;1.458;2022-12-24T15:19:26;4.22;;;1.40;;
49722;SDS011;43484;43.608;1.458;2022-12-24T15:21:57;1.80;;;1.38;;
49722;SDS011;43484;43.608;1.458;2022-12-24T15:24:31;4.90;;;1.40;;
49722;SDS011;43484;43.608;1.458;2022-12-24T15:27:00;3.45;;;1.95;;
49722;SDS011;43484;43.608;1.458;2022-12-24T15:29:31;5.22;;;1.85;;
49722;SDS011;43484;43.608;1.458;2022-12-24T15:32:04;5.23;;;1.83;;
49722;SDS011;43484;43.608;1.458;2022-12-24T15:34:34;3.22;;;2.17;;
49722;SDS011;43484;43.608;1.458;2022-12-24T15:42:42;7.65;;;3.45;;
49722;SDS011;43484;43.608;1.458;2022-12-24T15:45:16;6.88;;;2.88;;
49722;SDS011;43484;43.608;1.458;2022-12-24T15:47:57;10.32;;;4.57;;
49722;SDS011;43484;43.608;1.458;2022-12-24T15:50:30;6.80;;;3.17;;
49722;SDS011;43484;43.608;1.458;2022-12-24T15:53:02;7.43;;;3.13;;
49722;SDS011;43484;43.608;1.458;2022-12-24T15:56:00;6.05;;;2.50;;
49722;SDS011;43484;43.608;1.458;2022-12-24T15:58:30;3.92;;;2.05;;
49722;SDS011;43484;43.608;1.458;2022-12-24T16:01:44;5.82;;;2.20;;
49722;SDS011;43484;43.608;1.458;2022-12-24T16:03:57;5.28;;;1.75;;
49722;SDS011;43484;43.608;1.458;2022-12-24T16:06:25;4.35;;;1.80;;
49722;SDS011;43484;43.608;1.458;2022-12-24T16:08:53;3.58;;;1.80;;
49722;SDS011;43484;43.608;1.458;2022-12-24T16:11:34;9.90;;;3.85;;
49722;SDS011;43484;43.608;1.458;2022-12-24T16:14:14;17.42;;;10.40;;
49722;SDS011;43484;43.608;1.458;2022-12-24T16:16:46;4.55;;;2.65;;
49722;SDS011;43484;43.608;1.458;2022-12-24T16:19:17;4.60;;;2.15;;
49722;SDS011;43484;43.608;1.458;2022-12-24T16:21:53;6.57;;;2.75;;
49722;SDS011;43484;43.608;1.458;2022-12-24T16:24:26;12.65;;;5.28;;
49722;SDS011;43484;43.608;1.458;2022-12-24T16:26:55;4.40;;;2.10;;
49722;SDS011;43484;43.608;1.458;2022-12-24T16:29:22;28.40;;;14.48;;
49722;SDS011;43484;43.608;1.458;2022-12-24T16:31:50;7.13;;;2.78;;
49722;SDS011;43484;43.608;1.458;2022-12-24T16:34:19;4.50;;;2.20;;
49722;SDS011;43484;43.608;1.458;2022-12-24T16:36:49;7.43;;;2.20;;
49722;SDS011;43484;43.608;1.458;2022-12-24T16:39:20;4.82;;;2.17;;
49722;SDS011;43484;43.608;1.458;2022-12-24T16:41:56;7.00;;;2.60;;
49722;SDS011;43484;43.608;1.458;2022-12-24T16:44:43;8.95;;;2.75;;
49722;SDS011;43484;43.608;1.458;2022-12-24T16:47:11;6.68;;;2.47;;
49722;SDS011;43484;43.608;1.458;2022-12-24T16:49:42;12.70;;;5.30;;
49722;SDS011;43484;43.608;1.458;2022-12-24T16:52:15;13.10;;;5.30;;
49722;SDS011;43484;43.608;1.458;2022-12-24T16:54:47;6.13;;;3.92;;
49722;SDS011;43484;43.608;1.458;2022-12-24T16:57:15;8.88;;;3.40;;
49722;SDS011;43484;43.608;1.458;2022-12-24T16:59:42;7.88;;;3.47;;
49722;SDS011;43484;43.608;1.458;2022-12-24T17:02:09;8.00;;;4.10;;
49722;SDS011;43484;43.608;1.458;2022-12-24T17:04:40;10.10;;;4.35;;
49722;SDS011;43484;43.608;1.458;2022-12-24T17:07:07;11.20;;;5.22;;
49722;SDS011;43484;43.608;1.458;2022-12-24T17:09:34;8.60;;;4.28;;
49722;SDS011;43484;43.608;1.458;2022-12-24T17:12:01;9.55;;;5.30;;
49722;SDS011;43484;43.608;1.458;2022-12-24T17:14:27;15.30;;;6.20;;
49722;SDS011;43484;43.608;1.458;2022-12-24T17:16:54;19.23;;;7.45;;
49722;SDS011;43484;43.608;1.458;2022-12-24T17:19:21;11.90;;;5.80;;
49722;SDS011;43484;43.608;1.458;2022-12-24T17:21:47;11.70;;;4.28;;
49722;SDS011;43484;43.608;1.458;2022-12-24T17:24:14;8.23;;;4.00;;
49722;SDS011;43484;43.608;1.458;2022-12-24T17:26:40;7.20;;;3.95;;